createdAt,value
2023-01-29T00:00:13.118Z,100777.31
2023-01-29T00:03:00.923Z,100786.53
2023-01-29T00:05:28.773Z,100787.03
2023-01-29T00:07:57.329Z,100781.75
2023-01-29T00:10:25.684Z,100787.59
2023-01-29T00:12:54.044Z,100786.78
2023-01-29T00:15:22.040Z,100785.75
2023-01-29T00:17:50.597Z,100794.97
2023-01-29T00:20:18.674Z,100787.88
2023-01-29T00:22:47.703Z,100800.28
2023-01-29T00:25:16.413Z,100791.06
2023-01-29T00:27:44.802Z,100794.47
2023-01-29T00:30:14.527Z,100796.06
2023-01-29T00:32:43.045Z,100799.00
2023-01-29T00:35:10.755Z,100805.06
2023-01-29T00:37:38.997Z,100806.41
2023-01-29T00:40:08.093Z,100807.19
2023-01-29T00:42:54.850Z,100807.72
2023-01-29T00:45:22.350Z,100806.13
2023-01-29T00:47:50.623Z,100809.03
2023-01-29T00:50:18.855Z,100815.63
2023-01-29T00:52:48.725Z,100818.00
2023-01-29T00:55:16.569Z,100813.47
2023-01-29T00:57:45.166Z,100814.84
2023-01-29T01:00:17.427Z,100815.09
2023-01-29T01:03:04.615Z,100815.13
2023-01-29T01:05:32.744Z,100813.25
2023-01-29T01:08:00.694Z,100813.53
2023-01-29T01:10:32.523Z,100821.72
2023-01-29T01:13:07.044Z,100818.81
2023-01-29T01:15:41.422Z,100819.63
2023-01-29T01:18:09.474Z,100822.78
2023-01-29T01:20:37.439Z,100829.13
2023-01-29T01:23:05.643Z,100826.22
2023-01-29T01:25:33.275Z,100833.09
2023-01-29T01:28:01.848Z,100823.56
2023-01-29T01:30:29.514Z,100825.69
2023-01-29T01:32:57.766Z,100823.84
2023-01-29T01:35:25.457Z,100823.59
2023-01-29T01:37:53.303Z,100814.91
2023-01-29T01:40:23.934Z,100825.72
2023-01-29T01:42:58.918Z,100812.00
2023-01-29T01:45:37.340Z,100816.19
2023-01-29T01:48:27.283Z,100814.09
2023-01-29T01:51:03.471Z,100811.44
2023-01-29T01:54:07.462Z,100809.31
2023-01-29T01:56:42.856Z,100823.84
2023-01-29T01:59:16.678Z,100828.34
2023-01-29T02:01:51.299Z,100828.34
2023-01-29T02:04:42.325Z,100822.00
2023-01-29T02:07:32.875Z,100825.16
2023-01-29T02:10:04.470Z,100822.75
2023-01-29T02:12:33.098Z,100822.97
2023-01-29T02:15:02.151Z,100817.47
2023-01-29T02:17:29.839Z,100826.44
2023-01-29T02:20:06.405Z,100820.63
2023-01-29T02:22:59.373Z,100822.47
2023-01-29T02:25:51.237Z,100815.59
2023-01-29T02:28:49.164Z,100817.16
2023-01-29T02:31:47.098Z,100815.03
2023-01-29T02:35:06.958Z,100811.31
2023-01-29T02:37:50.356Z,100817.19
2023-01-29T02:40:27.380Z,100827.19
2023-01-29T02:43:47.811Z,100827.97
2023-01-29T02:46:35.859Z,100834.56
2023-01-29T02:49:24.457Z,100843.03
2023-01-29T02:52:25.840Z,100838.03
2023-01-29T02:55:10.573Z,100853.66
2023-01-29T02:57:44.821Z,100841.50
2023-01-29T03:00:25.772Z,100846.53
2023-01-29T03:03:10.503Z,100839.41
2023-01-29T03:06:28.368Z,100833.59
2023-01-29T03:09:01.667Z,100834.63
2023-01-29T03:11:39.787Z,100832.56
2023-01-29T03:14:23.352Z,100837.00
2023-01-29T03:16:54.354Z,100835.97
2023-01-29T03:19:32.068Z,100840.16
2023-01-29T03:22:06.302Z,100840.97
2023-01-29T03:25:09.424Z,100853.13
2023-01-29T03:28:06.492Z,100843.13
2023-01-29T03:31:07.670Z,100848.69
2023-01-29T03:34:16.438Z,100848.41
2023-01-29T03:37:02.036Z,100853.72
2023-01-29T03:39:30.730Z,100854.25
2023-01-29T03:42:31.644Z,100853.75
2023-01-29T03:45:27.532Z,100852.66
2023-01-29T03:48:24.814Z,100850.00
2023-01-29T03:51:22.536Z,100846.59
2023-01-29T03:54:04.719Z,100852.94
2023-01-29T03:57:15.571Z,100862.47
2023-01-29T04:00:21.440Z,100855.06
2023-01-29T04:03:23.274Z,100855.84
2023-01-29T04:06:11.618Z,100860.09
2023-01-29T04:08:56.598Z,100861.94
2023-01-29T04:11:27.598Z,100860.06
2023-01-29T04:13:57.627Z,100869.59
2023-01-29T04:16:36.389Z,100857.16
2023-01-29T04:19:17.152Z,100872.25
2023-01-29T04:21:47.520Z,100863.25
2023-01-29T04:24:16.344Z,100865.63
2023-01-29T04:26:56.673Z,100875.44
2023-01-29T04:30:09.265Z,100875.97
2023-01-29T04:33:03.353Z,100866.97
2023-01-29T04:35:54.767Z,100869.31
2023-01-29T04:38:47.643Z,100875.13
2023-01-29T04:41:58.535Z,100870.91
2023-01-29T04:45:16.797Z,100881.72
2023-01-29T04:48:08.483Z,100872.19
2023-01-29T04:51:05.740Z,100874.25
2023-01-29T04:54:14.921Z,100877.69
2023-01-29T04:56:57.064Z,100869.50
2023-01-29T04:59:41.632Z,100870.03
2023-01-29T05:02:12.001Z,100889.56
2023-01-29T05:04:44.678Z,100879.22
2023-01-29T05:07:15.455Z,100876.88
2023-01-29T05:09:45.713Z,100882.16
2023-01-29T05:12:16.105Z,100892.00
2023-01-29T05:14:47.090Z,100900.22
2023-01-29T05:17:19.223Z,100885.44
2023-01-29T05:19:47.678Z,100893.13
2023-01-29T05:22:18.514Z,100901.88
2023-01-29T05:24:46.713Z,100902.38
2023-01-29T05:27:41.539Z,100904.75
2023-01-29T05:30:10.535Z,100910.81
2023-01-29T05:32:39.813Z,100903.41
2023-01-29T05:35:08.078Z,100913.72
2023-01-29T05:37:35.679Z,100905.50
2023-01-29T05:40:03.921Z,100913.44
2023-01-29T05:42:32.643Z,100912.41
2023-01-29T05:45:00.422Z,100913.47
2023-01-29T05:47:27.935Z,100917.22
2023-01-29T05:49:55.798Z,100920.94
2023-01-29T05:52:23.385Z,100927.59
2023-01-29T05:54:51.218Z,100938.44
2023-01-29T05:57:18.773Z,100932.09
2023-01-29T05:59:46.602Z,100927.03
2023-01-29T06:02:14.075Z,100928.34
2023-01-29T06:04:41.941Z,100928.38
2023-01-29T06:07:09.763Z,100932.09
2023-01-29T06:09:37.841Z,100930.25
2023-01-29T06:12:06.472Z,100937.34
2023-01-29T06:14:34.487Z,100937.59
2023-01-29T06:17:02.208Z,100939.97
2023-01-29T06:19:30.061Z,100940.50
2023-01-29T06:21:57.620Z,100939.72
2023-01-29T06:24:25.403Z,100938.44
2023-01-29T06:26:52.978Z,100945.31
2023-01-29T06:29:20.765Z,100954.88
2023-01-29T06:31:48.523Z,100950.59
2023-01-29T06:34:16.675Z,100958.03
2023-01-29T06:36:44.192Z,100961.19
2023-01-29T06:39:12.736Z,100960.69
2023-01-29T06:41:40.318Z,100966.97
2023-01-29T06:44:08.095Z,100971.25
2023-01-29T06:46:35.976Z,100968.59
2023-01-29T06:49:04.076Z,100972.31
2023-01-29T06:51:31.693Z,100975.97
2023-01-29T06:53:59.591Z,100984.41
2023-01-29T06:56:27.073Z,100989.19
2023-01-29T06:58:54.938Z,100991.81
2023-01-29T07:01:35.273Z,100989.19
2023-01-29T07:04:04.753Z,100995.03
2023-01-29T07:06:32.671Z,100996.38
2023-01-29T07:09:00.859Z,100996.09
2023-01-29T07:11:28.319Z,100997.94
2023-01-29T07:13:56.152Z,100994.50
2023-01-29T07:16:25.008Z,100997.94
2023-01-29T07:18:53.032Z,101001.13
2023-01-29T07:21:20.519Z,101001.41
2023-01-29T07:23:48.347Z,101004.88
2023-01-29T07:26:16.554Z,101004.34
2023-01-29T07:28:44.398Z,101005.91
2023-01-29T07:31:14.131Z,101005.66
2023-01-29T07:33:45.130Z,101003.03
2023-01-29T07:36:15.882Z,101010.97
2023-01-29T07:38:43.760Z,101001.72
2023-01-29T07:41:12.774Z,101012.31
2023-01-29T07:43:40.600Z,100998.47
2023-01-29T07:46:08.348Z,100999.28
2023-01-29T07:48:36.227Z,101006.69
2023-01-29T07:51:03.831Z,101011.72
2023-01-29T07:53:31.876Z,101018.81
2023-01-29T07:55:59.560Z,101008.50
2023-01-29T07:58:27.391Z,101015.66
2023-01-29T08:00:54.877Z,101019.38
2023-01-29T08:03:22.788Z,101012.78
2023-01-29T08:05:50.437Z,101021.00
2023-01-29T08:08:19.415Z,101029.50
2023-01-29T08:10:46.940Z,101025.78
2023-01-29T08:13:15.728Z,101023.13
2023-01-29T08:15:47.606Z,101030.28
2023-01-29T08:18:16.736Z,101027.38
2023-01-29T08:20:44.380Z,101030.88
2023-01-29T08:23:16.828Z,101031.41
2023-01-29T08:25:44.881Z,101037.50
2023-01-29T08:28:13.170Z,101036.44
2023-01-29T08:30:40.913Z,101051.00
2023-01-29T08:33:08.854Z,101048.09
2023-01-29T08:35:36.947Z,101046.53
2023-01-29T08:38:05.862Z,101053.41
2023-01-29T08:40:35.589Z,101054.50
2023-01-29T08:43:08.673Z,101049.19
2023-01-29T08:45:41.515Z,101055.53
2023-01-29T08:48:10.412Z,101057.13
2023-01-29T08:50:38.262Z,101053.16
2023-01-29T08:53:08.239Z,101059.22
2023-01-29T08:55:38.614Z,101053.41
2023-01-29T08:58:10.278Z,101059.78
2023-01-29T09:00:38.954Z,101052.88
2023-01-29T09:03:07.979Z,101052.84
2023-01-29T09:05:40.040Z,101063.41
2023-01-29T09:08:09.704Z,101058.38
2023-01-29T09:10:37.576Z,101064.72
2023-01-29T09:13:05.555Z,101053.84
2023-01-29T09:15:33.408Z,101054.34
2023-01-29T09:18:05.418Z,101052.53
2023-01-29T09:20:33.912Z,101055.94
2023-01-29T09:23:09.216Z,101062.59
2023-01-29T09:25:38.554Z,101060.25
2023-01-29T09:28:06.453Z,101055.47
2023-01-29T09:30:37.529Z,101067.91
2023-01-29T09:33:06.123Z,101062.34
2023-01-29T09:35:34.833Z,101044.91
2023-01-29T09:38:02.382Z,101052.84
2023-01-29T09:41:02.949Z,101050.47
2023-01-29T09:43:51.378Z,101047.56
2023-01-29T09:46:46.684Z,101050.22
2023-01-29T09:49:39.291Z,101048.13
2023-01-29T09:52:36.304Z,101051.28
2023-01-29T09:55:27.514Z,101042.28
2023-01-29T09:58:07.687Z,101045.44
2023-01-29T10:00:51.137Z,101034.88
2023-01-29T10:04:06.858Z,101039.09
2023-01-29T10:06:59.348Z,101034.34
2023-01-29T10:09:48.122Z,101022.66
2023-01-29T10:12:37.140Z,101025.34
2023-01-29T10:15:14.201Z,101028.00
2023-01-29T10:18:18.621Z,101027.72
2023-01-29T10:21:17.154Z,101021.09
2023-01-29T10:23:59.230Z,101023.75
2023-01-29T10:26:29.406Z,101017.69
2023-01-29T10:29:01.028Z,101016.34
2023-01-29T10:31:38.980Z,101008.13
2023-01-29T10:34:24.211Z,101012.06
2023-01-29T10:36:53.983Z,101004.13
2023-01-29T10:39:25.512Z,101008.09
2023-01-29T10:42:33.359Z,101004.41
2023-01-29T10:45:29.055Z,101003.59
2023-01-29T10:49:00.260Z,101007.06
2023-01-29T10:52:11.333Z,101002.06
2023-01-29T10:55:13.084Z,100999.41
2023-01-29T10:58:32.982Z,100990.91
2023-01-29T11:01:01.374Z,100994.09
2023-01-29T11:03:33.438Z,100982.66
2023-01-29T11:06:25.434Z,100986.91
2023-01-29T11:09:10.950Z,100985.88
2023-01-29T11:11:45.282Z,100983.72
2023-01-29T11:14:21.905Z,100981.31
2023-01-29T11:16:50.507Z,100978.69
2023-01-29T11:19:18.761Z,100979.72
2023-01-29T11:22:01.837Z,100979.22
2023-01-29T11:24:29.390Z,100980.81
2023-01-29T11:27:00.626Z,100977.63
2023-01-29T11:29:43.036Z,100978.94
2023-01-29T11:32:22.878Z,100973.41
2023-01-29T11:35:19.627Z,100983.47
2023-01-29T11:37:47.955Z,100988.78
2023-01-29T11:40:39.312Z,100980.84
2023-01-29T11:43:33.043Z,100989.06
2023-01-29T11:46:11.753Z,100983.50
2023-01-29T11:48:58.978Z,100989.06
2023-01-29T11:51:30.023Z,100989.28
2023-01-29T11:54:04.781Z,100983.59
2023-01-29T11:56:51.873Z,100987.13
2023-01-29T11:59:48.965Z,100995.91
2023-01-29T12:02:31.651Z,100984.34
2023-01-29T12:05:17.878Z,100985.22
2023-01-29T12:07:49.825Z,100995.56
2023-01-29T12:10:41.791Z,100986.56
2023-01-29T12:13:15.912Z,100983.97
2023-01-29T12:15:43.845Z,100975.53
2023-01-29T12:18:27.311Z,100983.47
2023-01-29T12:21:13.157Z,100980.84
2023-01-29T12:24:26.660Z,100982.66
2023-01-29T12:27:27.156Z,100985.03
2023-01-29T12:30:42.147Z,100975.53
2023-01-29T12:33:33.612Z,100972.88
2023-01-29T12:36:28.349Z,100976.56
2023-01-29T12:38:59.069Z,100992.19
2023-01-29T12:41:46.677Z,100986.09
2023-01-29T12:44:26.224Z,100978.97
2023-01-29T12:46:59.637Z,100989.34
2023-01-29T12:49:33.160Z,100981.91
2023-01-29T12:52:29.276Z,100984.56
2023-01-29T12:55:03.745Z,100986.44
2023-01-29T12:57:43.047Z,100987.22
2023-01-29T13:00:22.597Z,100979.00
2023-01-29T13:03:00.753Z,100988.53
2023-01-29T13:05:56.578Z,100982.44
2023-01-29T13:08:45.752Z,100985.09
2023-01-29T13:11:19.179Z,100982.44
2023-01-29T13:14:02.099Z,100984.56
2023-01-29T13:16:45.753Z,100991.72
2023-01-29T13:19:40.205Z,100985.63
2023-01-29T13:22:25.586Z,100987.47
2023-01-29T13:25:04.173Z,100981.38
2023-01-29T13:27:35.801Z,100976.59
2023-01-29T13:30:03.854Z,100981.88
2023-01-29T13:32:35.272Z,100987.72
2023-01-29T13:35:14.231Z,100974.44
2023-01-29T13:37:53.851Z,100976.56
2023-01-29T13:40:29.035Z,100982.94
2023-01-29T13:43:00.218Z,100980.28
2023-01-29T13:45:43.398Z,100982.13
2023-01-29T13:48:37.069Z,100986.34
2023-01-29T13:51:20.318Z,100986.09
2023-01-29T13:54:07.956Z,100982.66
2023-01-29T13:56:35.537Z,100983.47
2023-01-29T13:59:20.909Z,100995.09
2023-01-29T14:01:48.375Z,100998.28
2023-01-29T14:04:31.093Z,100998.28
2023-01-29T14:07:00.900Z,100999.34
2023-01-29T14:09:32.379Z,101007.31
2023-01-29T14:12:00.162Z,100991.16
2023-01-29T14:14:50.189Z,101001.50
2023-01-29T14:17:20.617Z,100993.53
2023-01-29T14:19:55.586Z,100999.09
2023-01-29T14:22:30.689Z,100996.72
2023-01-29T14:25:05.309Z,101008.88
2023-01-29T14:27:34.710Z,101002.81
2023-01-29T14:30:09.760Z,101000.94
2023-01-29T14:32:41.324Z,101004.94
2023-01-29T14:35:24.565Z,100995.13
2023-01-29T14:37:56.649Z,100997.25
2023-01-29T14:40:27.333Z,100999.63
2023-01-29T14:42:59.079Z,101007.81
2023-01-29T14:45:30.500Z,100994.56
2023-01-29T14:48:03.205Z,100998.28
2023-01-29T14:50:33.563Z,101000.69
2023-01-29T14:53:05.653Z,100998.31
2023-01-29T14:56:14.538Z,101004.16
2023-01-29T14:58:54.828Z,100999.38
2023-01-29T15:01:37.724Z,101008.38
2023-01-29T15:04:13.052Z,101000.97
2023-01-29T15:07:11.585Z,100990.94
2023-01-29T15:10:20.937Z,101000.19
2023-01-29T15:13:03.414Z,100997.28
2023-01-29T15:15:52.072Z,101001.78
2023-01-29T15:18:42.421Z,100988.00
2023-01-29T15:21:19.124Z,100993.84
2023-01-29T15:23:49.036Z,100990.94
2023-01-29T15:26:26.862Z,100986.41
2023-01-29T15:29:04.907Z,100983.25
2023-01-29T15:31:33.194Z,100982.41
2023-01-29T15:34:07.596Z,100974.47
2023-01-29T15:36:37.428Z,100967.59
2023-01-29T15:39:16.940Z,100978.97
2023-01-29T15:41:45.844Z,100977.66
2023-01-29T15:44:20.912Z,100972.09
2023-01-29T15:46:56.609Z,100980.81
2023-01-29T15:49:34.812Z,100977.66
2023-01-29T15:52:09.583Z,100978.72
2023-01-29T15:54:37.437Z,100988.78
2023-01-29T15:57:07.169Z,100985.06
2023-01-29T15:59:43.649Z,100986.16
2023-01-29T16:02:36.381Z,101006.00
2023-01-29T16:05:20.558Z,100980.34
2023-01-29T16:07:50.615Z,100990.13
2023-01-29T16:10:22.085Z,100998.88
2023-01-29T16:12:51.711Z,100993.56
2023-01-29T16:15:32.815Z,100983.75
2023-01-29T16:18:04.208Z,100994.63
2023-01-29T16:20:43.717Z,100986.66
2023-01-29T16:23:20.462Z,100989.31
2023-01-29T16:25:49.911Z,100981.91
2023-01-29T16:28:18.602Z,100984.56
2023-01-29T16:30:46.787Z,100986.94
2023-01-29T16:33:17.542Z,100983.50
2023-01-29T16:35:52.152Z,100987.19
2023-01-29T16:38:32.709Z,100981.13
2023-01-29T16:41:08.935Z,100984.03
2023-01-29T16:43:42.417Z,100978.72
2023-01-29T16:46:44.967Z,100983.50
2023-01-29T16:49:31.094Z,100981.38
2023-01-29T16:52:34.036Z,100978.72
2023-01-29T16:55:11.922Z,100982.44
2023-01-29T16:57:41.062Z,100975.81
2023-01-29T17:00:24.541Z,100974.22
2023-01-29T17:03:05.415Z,100972.38
2023-01-29T17:05:37.111Z,100979.25
2023-01-29T17:08:06.246Z,100971.31
2023-01-29T17:10:36.015Z,100965.47
2023-01-29T17:13:10.207Z,100967.88
2023-01-29T17:16:04.740Z,100965.47
2023-01-29T17:18:32.750Z,100959.66
2023-01-29T17:21:00.280Z,100962.56
2023-01-29T17:23:28.507Z,100961.25
2023-01-29T17:25:56.043Z,100958.31
2023-01-29T17:28:24.042Z,100970.78
2023-01-29T17:31:05.160Z,100967.88
2023-01-29T17:33:42.880Z,100979.50
2023-01-29T17:36:16.448Z,100983.00
2023-01-29T17:38:45.837Z,100983.50
2023-01-29T17:41:29.860Z,100976.06
2023-01-29T17:43:57.699Z,100979.53
2023-01-29T17:46:25.371Z,100978.47
2023-01-29T17:48:53.444Z,100980.84
2023-01-29T17:51:21.894Z,100980.84
2023-01-29T17:53:51.401Z,100980.34
2023-01-29T17:56:28.093Z,100977.69
2023-01-29T17:58:56.103Z,100981.09
2023-01-29T18:01:23.934Z,100980.84
2023-01-29T18:03:51.949Z,100980.84
2023-01-29T18:06:30.040Z,100989.84
2023-01-29T18:08:58.576Z,100984.81
2023-01-29T18:11:26.566Z,100978.47
2023-01-29T18:13:56.040Z,100978.75
2023-01-29T18:16:25.313Z,100971.06
2023-01-29T18:18:53.283Z,100981.91
2023-01-29T18:21:21.047Z,100979.00
2023-01-29T18:23:49.040Z,100981.91
2023-01-29T18:26:17.944Z,100980.59
2023-01-29T18:28:45.957Z,100989.84
2023-01-29T18:31:15.034Z,100981.38
2023-01-29T18:33:43.054Z,100987.72
2023-01-29T18:36:10.887Z,100988.81
2023-01-29T18:38:39.703Z,100982.19
2023-01-29T18:41:12.619Z,100991.72
2023-01-29T18:43:42.304Z,100982.16
2023-01-29T18:46:10.634Z,100980.34
2023-01-29T18:48:40.929Z,100982.97
2023-01-29T18:51:09.551Z,100989.06
2023-01-29T18:53:37.560Z,100990.63
2023-01-29T18:56:07.006Z,100987.22
2023-01-29T18:58:37.264Z,100985.63
2023-01-29T19:01:09.837Z,100978.22
2023-01-29T19:03:42.414Z,100988.81
2023-01-29T19:06:12.122Z,100984.81
2023-01-29T19:08:41.096Z,100985.34
2023-01-29T19:11:09.146Z,100992.50
2023-01-29T19:13:39.303Z,100985.09
2023-01-29T19:16:12.797Z,100983.25
2023-01-29T19:18:40.920Z,100977.41
2023-01-29T19:21:17.076Z,100979.00
2023-01-29T19:23:45.220Z,100978.22
2023-01-29T19:26:13.714Z,100971.84
2023-01-29T19:28:42.336Z,100977.13
2023-01-29T19:31:10.243Z,100966.28
2023-01-29T19:33:39.193Z,100970.53
2023-01-29T19:36:07.577Z,100971.84
2023-01-29T19:38:38.607Z,100973.72
2023-01-29T19:41:06.904Z,100976.63
2023-01-29T19:43:35.061Z,100974.50
2023-01-29T19:46:02.772Z,100977.13
2023-01-29T19:53:16.107Z,100973.94
2023-01-29T19:55:44.116Z,100979.25
2023-01-29T19:58:11.792Z,100977.63
2023-01-29T20:00:43.062Z,100979.50
2023-01-29T20:03:10.685Z,100988.75
2023-01-29T20:05:38.817Z,100986.63
2023-01-29T20:08:06.573Z,100993.00
2023-01-29T20:10:34.640Z,100989.31
2023-01-29T20:13:02.193Z,101000.44
2023-01-29T20:15:33.030Z,100990.88
2023-01-29T20:18:44.239Z,100996.47
2023-01-29T20:24:22.000Z,100994.59
2023-01-29T20:26:51.639Z,100999.91
2023-01-29T20:29:19.471Z,100993.81
2023-01-29T20:31:47.760Z,100994.09
2023-01-29T20:34:16.546Z,100993.53
2023-01-29T20:36:44.556Z,100994.59
2023-01-29T20:39:12.361Z,100989.31
2023-01-29T20:41:41.939Z,100988.25
2023-01-29T20:44:20.075Z,100985.06
2023-01-29T20:47:27.920Z,100990.38
2023-01-29T20:50:27.106Z,100985.06
2023-01-29T20:59:51.172Z,101007.53
2023-01-29T21:02:19.717Z,101004.63
2023-01-29T21:04:47.681Z,101011.75
2023-01-29T21:07:15.449Z,101005.16
2023-01-29T21:09:49.813Z,100999.88
2023-01-29T21:12:17.637Z,101007.56
2023-01-29T21:19:51.416Z,101000.94
2023-01-29T21:22:42.523Z,100997.75
2023-01-29T21:25:12.057Z,101002.25
2023-01-29T21:27:39.493Z,100998.53
2023-01-29T21:30:08.435Z,100999.31
2023-01-29T21:32:36.097Z,101005.66
2023-01-29T21:35:04.876Z,101002.75
2023-01-29T21:37:36.905Z,101001.13
2023-01-29T21:40:07.433Z,100987.38
2023-01-29T21:42:53.417Z,100986.06
2023-01-29T21:45:21.422Z,100980.75
2023-01-29T21:47:49.051Z,100985.22
2023-01-29T21:50:17.666Z,100984.69
2023-01-29T21:52:45.278Z,100979.16
2023-01-29T21:55:13.085Z,100979.66
2023-01-29T21:57:40.748Z,100974.91
2023-01-29T22:00:11.282Z,100981.25
2023-01-29T22:02:39.224Z,100982.31
2023-01-29T22:05:18.772Z,100969.94
2023-01-29T22:07:49.236Z,100973.88
2023-01-29T22:10:19.216Z,100967.56
2023-01-29T22:12:48.109Z,100974.97
2023-01-29T22:15:16.381Z,100952.47
2023-01-29T22:17:43.953Z,100959.88
2023-01-29T22:20:14.269Z,100960.69
2023-01-29T22:22:42.409Z,100968.34
2023-01-29T22:25:10.778Z,100953.00
2023-01-29T22:27:38.316Z,100961.19
2023-01-29T22:30:07.288Z,100966.22
2023-01-29T22:32:34.773Z,100968.09
2023-01-29T22:35:02.607Z,100956.72
2023-01-29T22:37:30.393Z,100953.25
2023-01-29T22:39:58.255Z,100953.25
2023-01-29T22:42:26.207Z,100946.94
2023-01-29T22:44:54.399Z,100950.38
2023-01-29T22:47:23.221Z,100941.38
2023-01-29T22:49:53.743Z,100941.38
2023-01-29T22:52:24.452Z,100934.22
2023-01-29T22:54:53.714Z,100943.75
2023-01-29T22:57:21.356Z,100933.19
2023-01-29T22:59:49.405Z,100936.88
2023-01-29T23:02:16.949Z,100940.31
2023-01-29T23:04:44.869Z,100938.75
2023-01-29T23:07:12.471Z,100942.69
2023-01-29T23:09:40.568Z,100942.94
2023-01-29T23:12:08.329Z,100942.69
2023-01-29T23:14:37.965Z,100933.44
2023-01-29T23:17:05.901Z,100930.78
2023-01-29T23:19:34.795Z,100928.63
2023-01-29T23:22:02.531Z,100922.56
2023-01-29T23:24:30.638Z,100936.84
2023-01-29T23:27:16.835Z,100920.44
2023-01-29T23:29:47.773Z,100919.38
2023-01-29T23:32:19.647Z,100911.72
2023-01-29T23:34:47.712Z,100915.94
2023-01-29T23:37:15.434Z,100912.00
2023-01-29T23:39:43.401Z,100912.53
2023-01-29T23:42:11.080Z,100908.81
2023-01-29T23:44:40.340Z,100904.06
2023-01-29T23:47:09.633Z,100896.66
2023-01-29T23:49:37.867Z,100904.31
2023-01-29T23:52:06.442Z,100890.81
2023-01-29T23:54:34.321Z,100888.72
2023-01-29T23:57:02.104Z,100882.34
2023-01-29T23:59:30.579Z,100876.53
